Currently 51°F in Beaumont, California, USA
51°F
53°F / 51°F
3 mph S
0.00"
Monday, December 17, 2018 1:37 AM PST

Beaumont, California Weather Summary
Last 36 Hours

Temperature Winds Hourly Humidity Dewpoint
Time Report Norm Report Norm Max Gusts Precip. Rpt. Norm Rpt. Norm Pressure
1Mon 01:37 AM  51.4°F  46°F  3 mph S  3 mph  3 mph  0.00"  35%  56%  23°F  31°F  30.06"
Mon 01:00 AM  52.3°F  46°F  3 mph S  3 mph  8 mph  0.00"  39%  56%  27°F  31°F  30.06"
2Mon 12:22 AM  52.7°F  46°F  3 mph S  3 mph  8 mph  ----  34%  56%  24°F  31°F  30.05"
3Mon 12:00 AM  50.5°F  46°F  1 mph S  3 mph  7 mph  0.00"  47%  57%  30°F  31°F  30.05"
Sun 11:00 PM  50.5°F  47°F  2 mph SE  3 mph  7 mph  0.00"  37%  56%  24°F  32°F  30.06"
Sun 10:00 PM  52.0°F  47°F  3 mph SE  3 mph  5 mph  0.00"  30%  56%  20°F  32°F  30.06"
Sun 09:00 PM  53.8°F  48°F  3 mph SE  3 mph  7 mph  0.00"  27%  56%  19°F  32°F  30.06"
Sun 08:00 PM  54.3°F  48°F  6 mph SE  3 mph  7 mph  0.00"  25%  56%  18°F  32°F  30.06"
Sun 07:21 PM  55.8°F  48°F  3 mph SE  3 mph  3 mph  0.00"  24%  55%  18°F  32°F  30.06"
Sun 05:00 PM  57.0°F  50°F  2 mph SE  3 mph  8 mph  0.00"  22%  52%  17°F  33°F  30.05"
Sun 04:00 PM  61.9°F  53°F  1 mph SE  3 mph  none  0.00"  20%  49%  19°F  33°F  30.05"
Sun 03:00 PM  64.9°F  54°F  3 mph S  5 mph  none  0.00"  18%  46%  19°F  33°F  30.03"
Sun 02:00 PM  66.4°F  55°F  7 mph S  5 mph  9 mph  0.00"  17%  46%  18°F  33°F  30.03"
Sun 01:00 PM  64.0°F  55°F  4 mph SE  6 mph  9 mph  0.00"  16%  46%  15°F  34°F  30.03"
Sun 12:00 PM  63.7°F  54°F  6 mph E  5 mph  13 mph  0.00"  17%  47%  16°F  33°F  30.05"
Sun 11:00 AM  61.3°F  53°F  7 mph E  5 mph  9 mph  0.00"  18%  48%  16°F  33°F  30.08"
Sun 10:00 AM  62.2°F  52°F  4 mph SE  5 mph  12 mph  0.00"  18%  50%  16°F  33°F  30.09"
Sun 09:00 AM  59.9°F  51°F  8 mph E  4 mph  12 mph  0.00"  19%  52%  16°F  33°F  30.09"
Sun 08:00 AM  62.4°F  49°F  5 mph E  3 mph  7 mph  0.00"  17%  53%  15°F  32°F  29.99"
Sun 07:00 AM  62.4°F  46°F  5 mph E  3 mph  7 mph  0.00"  17%  55%  15°F  30°F  29.99"
Sun 06:00 AM  62.4°F  46°F  5 mph E  3 mph  7 mph  0.00"  17%  55%  15°F  30°F  29.99"
Sun 05:00 AM  62.4°F  46°F  5 mph E  3 mph  7 mph  0.00"  17%  55%  15°F  30°F  29.99"
Sun 04:00 AM  62.4°F  47°F  5 mph E  3 mph  7 mph  0.00"  17%  55%  15°F  31°F  29.99"
Sun 03:00 AM  62.4°F  47°F  5 mph E  3 mph  7 mph  0.00"  17%  55%  15°F  31°F  29.99"
Sun 02:00 AM  62.4°F  47°F  5 mph E  3 mph  7 mph  0.00"  17%  55%  15°F  31°F  29.99"
Sun 01:00 AM  62.4°F  47°F  5 mph E  3 mph  7 mph  0.00"  17%  56%  15°F  31°F  29.99"
Sun 12:00 AM  62.4°F  47°F  5 mph E  3 mph  7 mph  0.00"  17%  56%  15°F  31°F  29.99"
Sat 11:00 PM  62.4°F  48°F  5 mph E  3 mph  7 mph  0.00"  17%  55%  15°F  31°F  29.99"
Sat 10:00 PM  62.4°F  48°F  5 mph E  3 mph  7 mph  0.00"  17%  54%  15°F  31°F  29.99"
Sat 09:00 PM  62.4°F  48°F  5 mph E  3 mph  7 mph  0.00"  17%  55%  15°F  32°F  29.99"
Sat 08:00 PM  62.4°F  49°F  5 mph E  3 mph  7 mph  0.00"  17%  54%  15°F  32°F  29.99"
Sat 07:00 PM  62.4°F  49°F  5 mph E  3 mph  7 mph  0.00"  17%  54%  15°F  32°F  29.99"
Sat 06:00 PM  62.4°F  50°F  5 mph E  3 mph  7 mph  0.00"  17%  53%  15°F  32°F  29.99"
Sat 05:00 PM  62.4°F  51°F  5 mph E  3 mph  7 mph  0.00"  17%  51%  15°F  32°F  29.99"
Sat 04:00 PM  62.4°F  53°F  5 mph E  3 mph  7 mph  0.00"  17%  48%  15°F  33°F  29.99"
Sat 03:00 PM  62.4°F  55°F  5 mph E  5 mph  9 mph  0.00"  17%  45%  15°F  33°F  29.99"
Sat 02:00 PM  62.4°F  56°F  6 mph E  6 mph  14 mph  0.00"  17%  44%  15°F  33°F  29.99"

  1. Current weather data. No green row appears if the current weather data is also the high or low for the current day.
  2. High temperature for the current day.
  3. Low temperature for the current day.

The Beaumont, California weather pages are a service of WeatherCurrents. Cherry Valley is located in northern Riverside County, California, a community of the northern part of Beaumont, along the Interstate 10 highway, in the San Gorgonio pass area, between the communities of Calimesa, Banning.
Copyright ©Mon Dec 17 01:46:50 PST 2018  WeatherCurrents. All rights reserved. - Submit questions and comments - Privacy Policy

This page automatically refreshes every 10 minutes.